sensor_id;sensor_type;location;lat;lon;timestamp;P1;durP1;ratioP1;P2;durP2;ratioP2
20044;SDS011;10183;47.808;9.476;2024-01-06T00:01:41;96.67;;;49.13;;
20044;SDS011;10183;47.808;9.476;2024-01-06T00:04:27;94.90;;;48.77;;
20044;SDS011;10183;47.808;9.476;2024-01-06T00:07:14;105.30;;;52.37;;
20044;SDS011;10183;47.808;9.476;2024-01-06T00:10:00;98.83;;;50.37;;
20044;SDS011;10183;47.808;9.476;2024-01-06T00:12:46;90.43;;;48.13;;
20044;SDS011;10183;47.808;9.476;2024-01-06T00:15:32;94.27;;;47.17;;
20044;SDS011;10183;47.808;9.476;2024-01-06T00:18:18;234.87;;;51.10;;
20044;SDS011;10183;47.808;9.476;2024-01-06T00:21:04;88.90;;;46.17;;
20044;SDS011;10183;47.808;9.476;2024-01-06T00:23:50;83.03;;;45.07;;
20044;SDS011;10183;47.808;9.476;2024-01-06T00:26:36;78.33;;;44.70;;
20044;SDS011;10183;47.808;9.476;2024-01-06T00:29:22;74.00;;;43.20;;
20044;SDS011;10183;47.808;9.476;2024-01-06T00:32:08;74.50;;;41.37;;
20044;SDS011;10183;47.808;9.476;2024-01-06T00:34:54;63.57;;;38.23;;
20044;SDS011;10183;47.808;9.476;2024-01-06T00:37:40;46.27;;;31.27;;
20044;SDS011;10183;47.808;9.476;2024-01-06T00:40:26;50.03;;;31.30;;
20044;SDS011;10183;47.808;9.476;2024-01-06T00:43:12;44.20;;;29.33;;
20044;SDS011;10183;47.808;9.476;2024-01-06T00:45:57;39.63;;;25.97;;
20044;SDS011;10183;47.808;9.476;2024-01-06T00:48:43;26.90;;;22.87;;
20044;SDS011;10183;47.808;9.476;2024-01-06T00:51:29;29.23;;;22.83;;
20044;SDS011;10183;47.808;9.476;2024-01-06T00:54:15;29.37;;;23.10;;
20044;SDS011;10183;47.808;9.476;2024-01-06T00:57:01;27.63;;;22.63;;
20044;SDS011;10183;47.808;9.476;2024-01-06T00:59:47;27.70;;;21.73;;
20044;SDS011;10183;47.808;9.476;2024-01-06T01:02:33;28.80;;;21.97;;
20044;SDS011;10183;47.808;9.476;2024-01-06T01:05:19;27.80;;;22.73;;
20044;SDS011;10183;47.808;9.476;2024-01-06T01:08:05;26.83;;;22.97;;
20044;SDS011;10183;47.808;9.476;2024-01-06T01:10:51;31.80;;;24.17;;
20044;SDS011;10183;47.808;9.476;2024-01-06T01:13:37;24.17;;;21.53;;
20044;SDS011;10183;47.808;9.476;2024-01-06T01:16:23;26.37;;;22.20;;
20044;SDS011;10183;47.808;9.476;2024-01-06T01:19:09;27.10;;;22.00;;
20044;SDS011;10183;47.808;9.476;2024-01-06T01:21:55;25.40;;;22.50;;
20044;SDS011;10183;47.808;9.476;2024-01-06T01:24:42;33.87;;;25.27;;
20044;SDS011;10183;47.808;9.476;2024-01-06T01:27:28;34.07;;;25.87;;
20044;SDS011;10183;47.808;9.476;2024-01-06T01:30:14;33.67;;;26.27;;
20044;SDS011;10183;47.808;9.476;2024-01-06T01:33:00;34.63;;;26.20;;
20044;SDS011;10183;47.808;9.476;2024-01-06T01:35:46;29.10;;;23.30;;
20044;SDS011;10183;47.808;9.476;2024-01-06T01:38:32;31.27;;;23.63;;
20044;SDS011;10183;47.808;9.476;2024-01-06T01:41:17;31.83;;;23.73;;
20044;SDS011;10183;47.808;9.476;2024-01-06T01:44:03;29.87;;;24.57;;
20044;SDS011;10183;47.808;9.476;2024-01-06T01:46:49;24.73;;;21.63;;
20044;SDS011;10183;47.808;9.476;2024-01-06T01:49:35;23.93;;;20.80;;
20044;SDS011;10183;47.808;9.476;2024-01-06T01:52:22;24.33;;;20.67;;
20044;SDS011;10183;47.808;9.476;2024-01-06T01:55:08;26.67;;;21.10;;
20044;SDS011;10183;47.808;9.476;2024-01-06T01:57:55;24.93;;;21.33;;
20044;SDS011;10183;47.808;9.476;2024-01-06T02:00:41;32.33;;;24.53;;
20044;SDS011;10183;47.808;9.476;2024-01-06T02:03:27;36.37;;;25.50;;
20044;SDS011;10183;47.808;9.476;2024-01-06T02:06:15;34.93;;;26.00;;
20044;SDS011;10183;47.808;9.476;2024-01-06T02:09:01;21.90;;;19.60;;
20044;SDS011;10183;47.808;9.476;2024-01-06T02:11:48;23.23;;;20.17;;
20044;SDS011;10183;47.808;9.476;2024-01-06T02:14:34;26.30;;;22.63;;
20044;SDS011;10183;47.808;9.476;2024-01-06T02:17:20;34.73;;;26.30;;
20044;SDS011;10183;47.808;9.476;2024-01-06T02:20:09;31.07;;;24.97;;
20044;SDS011;10183;47.808;9.476;2024-01-06T02:22:56;26.63;;;22.40;;
20044;SDS011;10183;47.808;9.476;2024-01-06T02:25:44;29.53;;;23.63;;
20044;SDS011;10183;47.808;9.476;2024-01-06T02:28:30;27.67;;;23.67;;
20044;SDS011;10183;47.808;9.476;2024-01-06T02:31:16;22.43;;;20.13;;
20044;SDS011;10183;47.808;9.476;2024-01-06T02:34:02;21.23;;;19.23;;
20044;SDS011;10183;47.808;9.476;2024-01-06T02:36:48;22.77;;;20.27;;
20044;SDS011;10183;47.808;9.476;2024-01-06T02:39:34;21.90;;;19.80;;
20044;SDS011;10183;47.808;9.476;2024-01-06T02:42:20;26.10;;;22.43;;
20044;SDS011;10183;47.808;9.476;2024-01-06T02:45:07;25.77;;;23.03;;
20044;SDS011;10183;47.808;9.476;2024-01-06T02:47:54;21.63;;;19.53;;
20044;SDS011;10183;47.808;9.476;2024-01-06T02:50:41;21.00;;;19.00;;
20044;SDS011;10183;47.808;9.476;2024-01-06T02:53:27;20.00;;;18.17;;
20044;SDS011;10183;47.808;9.476;2024-01-06T02:56:12;20.13;;;18.37;;
20044;SDS011;10183;47.808;9.476;2024-01-06T02:58:58;20.40;;;18.50;;
20044;SDS011;10183;47.808;9.476;2024-01-06T03:01:44;20.13;;;18.43;;
20044;SDS011;10183;47.808;9.476;2024-01-06T03:04:30;19.33;;;17.73;;
20044;SDS011;10183;47.808;9.476;2024-01-06T03:07:16;19.70;;;18.00;;
20044;SDS011;10183;47.808;9.476;2024-01-06T03:10:02;19.60;;;17.83;;
20044;SDS011;10183;47.808;9.476;2024-01-06T03:12:48;20.00;;;18.20;;
20044;SDS011;10183;47.808;9.476;2024-01-06T03:15:34;20.30;;;18.50;;
20044;SDS011;10183;47.808;9.476;2024-01-06T03:18:20;19.97;;;18.17;;
20044;SDS011;10183;47.808;9.476;2024-01-06T03:21:16;20.23;;;18.40;;
20044;SDS011;10183;47.808;9.476;2024-01-06T03:24:06;20.07;;;18.07;;
20044;SDS011;10183;47.808;9.476;2024-01-06T03:26:52;20.03;;;18.03;;
20044;SDS011;10183;47.808;9.476;2024-01-06T03:29:38;20.90;;;18.90;;
20044;SDS011;10183;47.808;9.476;2024-01-06T03:32:24;20.53;;;18.67;;
20044;SDS011;10183;47.808;9.476;2024-01-06T03:35:10;20.13;;;18.23;;
20044;SDS011;10183;47.808;9.476;2024-01-06T03:37:56;20.43;;;18.43;;
20044;SDS011;10183;47.808;9.476;2024-01-06T03:40:42;20.43;;;18.47;;
20044;SDS011;10183;47.808;9.476;2024-01-06T03:43:28;20.00;;;18.13;;
20044;SDS011;10183;47.808;9.476;2024-01-06T03:46:14;20.57;;;18.67;;
20044;SDS011;10183;47.808;9.476;2024-01-06T03:49:00;20.80;;;18.90;;
20044;SDS011;10183;47.808;9.476;2024-01-06T03:51:46;20.93;;;18.93;;
20044;SDS011;10183;47.808;9.476;2024-01-06T03:54:32;21.10;;;19.07;;
20044;SDS011;10183;47.808;9.476;2024-01-06T03:57:18;20.73;;;18.87;;
20044;SDS011;10183;47.808;9.476;2024-01-06T04:00:04;19.27;;;17.47;;
20044;SDS011;10183;47.808;9.476;2024-01-06T04:02:51;18.93;;;17.07;;
20044;SDS011;10183;47.808;9.476;2024-01-06T04:05:36;18.50;;;16.60;;
20044;SDS011;10183;47.808;9.476;2024-01-06T04:08:22;18.50;;;16.80;;
20044;SDS011;10183;47.808;9.476;2024-01-06T04:11:08;17.93;;;16.43;;
20044;SDS011;10183;47.808;9.476;2024-01-06T04:13:54;18.70;;;17.10;;
20044;SDS011;10183;47.808;9.476;2024-01-06T04:16:40;18.97;;;17.27;;
20044;SDS011;10183;47.808;9.476;2024-01-06T04:19:26;18.77;;;17.03;;
20044;SDS011;10183;47.808;9.476;2024-01-06T04:22:12;18.33;;;16.63;;
20044;SDS011;10183;47.808;9.476;2024-01-06T04:24:58;18.83;;;16.83;;
20044;SDS011;10183;47.808;9.476;2024-01-06T04:27:44;18.77;;;16.93;;
20044;SDS011;10183;47.808;9.476;2024-01-06T04:30:32;18.70;;;17.10;;
20044;SDS011;10183;47.808;9.476;2024-01-06T04:33:18;18.47;;;16.73;;
20044;SDS011;10183;47.808;9.476;2024-01-06T04:36:03;20.73;;;16.90;;
20044;SDS011;10183;47.808;9.476;2024-01-06T04:38:50;18.30;;;16.57;;
20044;SDS011;10183;47.808;9.476;2024-01-06T04:41:36;18.10;;;16.37;;
20044;SDS011;10183;47.808;9.476;2024-01-06T04:44:22;20.40;;;17.03;;
20044;SDS011;10183;47.808;9.476;2024-01-06T04:47:08;18.70;;;17.00;;
20044;SDS011;10183;47.808;9.476;2024-01-06T04:49:54;18.13;;;16.47;;
20044;SDS011;10183;47.808;9.476;2024-01-06T04:52:40;18.93;;;17.20;;
20044;SDS011;10183;47.808;9.476;2024-01-06T04:55:26;19.13;;;17.30;;
20044;SDS011;10183;47.808;9.476;2024-01-06T04:58:12;18.83;;;16.93;;
20044;SDS011;10183;47.808;9.476;2024-01-06T05:00:58;19.27;;;17.47;;
20044;SDS011;10183;47.808;9.476;2024-01-06T05:03:44;19.17;;;17.40;;
20044;SDS011;10183;47.808;9.476;2024-01-06T05:06:30;77.00;;;59.90;;
20044;SDS011;10183;47.808;9.476;2024-01-06T05:09:16;20.80;;;18.90;;
20044;SDS011;10183;47.808;9.476;2024-01-06T05:12:02;19.43;;;17.57;;
20044;SDS011;10183;47.808;9.476;2024-01-06T05:14:48;19.93;;;17.97;;
20044;SDS011;10183;47.808;9.476;2024-01-06T05:17:34;19.83;;;18.07;;
20044;SDS011;10183;47.808;9.476;2024-01-06T05:20:19;21.50;;;17.67;;
20044;SDS011;10183;47.808;9.476;2024-01-06T05:23:06;19.43;;;17.50;;
20044;SDS011;10183;47.808;9.476;2024-01-06T05:25:52;18.93;;;17.03;;
20044;SDS011;10183;47.808;9.476;2024-01-06T05:28:39;19.07;;;17.20;;
20044;SDS011;10183;47.808;9.476;2024-01-06T05:31:25;20.70;;;18.50;;
20044;SDS011;10183;47.808;9.476;2024-01-06T05:34:11;20.83;;;18.93;;
20044;SDS011;10183;47.808;9.476;2024-01-06T05:36:57;19.70;;;18.00;;
20044;SDS011;10183;47.808;9.476;2024-01-06T05:39:43;19.70;;;17.80;;
20044;SDS011;10183;47.808;9.476;2024-01-06T05:42:29;19.60;;;17.13;;
20044;SDS011;10183;47.808;9.476;2024-01-06T05:45:15;17.70;;;16.00;;
20044;SDS011;10183;47.808;9.476;2024-01-06T05:48:01;18.00;;;16.23;;
20044;SDS011;10183;47.808;9.476;2024-01-06T05:50:48;18.70;;;16.83;;
20044;SDS011;10183;47.808;9.476;2024-01-06T05:53:35;17.63;;;16.10;;
20044;SDS011;10183;47.808;9.476;2024-01-06T05:56:22;17.40;;;15.73;;
20044;SDS011;10183;47.808;9.476;2024-01-06T05:59:11;17.37;;;15.60;;
20044;SDS011;10183;47.808;9.476;2024-01-06T06:01:57;17.00;;;15.37;;
20044;SDS011;10183;47.808;9.476;2024-01-06T06:04:43;18.50;;;16.80;;
20044;SDS011;10183;47.808;9.476;2024-01-06T06:07:29;17.97;;;16.23;;
20044;SDS011;10183;47.808;9.476;2024-01-06T06:10:15;18.03;;;16.33;;
20044;SDS011;10183;47.808;9.476;2024-01-06T06:13:04;18.33;;;15.90;;
20044;SDS011;10183;47.808;9.476;2024-01-06T06:15:50;19.90;;;16.80;;
20044;SDS011;10183;47.808;9.476;2024-01-06T06:18:36;18.90;;;17.10;;
20044;SDS011;10183;47.808;9.476;2024-01-06T06:21:22;20.40;;;18.40;;
20044;SDS011;10183;47.808;9.476;2024-01-06T06:24:08;19.57;;;17.63;;
20044;SDS011;10183;47.808;9.476;2024-01-06T06:26:53;19.30;;;17.40;;
20044;SDS011;10183;47.808;9.476;2024-01-06T06:29:39;21.80;;;17.40;;
20044;SDS011;10183;47.808;9.476;2024-01-06T06:32:25;24.73;;;18.17;;
20044;SDS011;10183;47.808;9.476;2024-01-06T06:35:11;17.67;;;16.17;;
20044;SDS011;10183;47.808;9.476;2024-01-06T06:37:57;20.70;;;16.80;;
20044;SDS011;10183;47.808;9.476;2024-01-06T06:40:43;19.03;;;16.90;;
20044;SDS011;10183;47.808;9.476;2024-01-06T06:43:29;23.43;;;16.57;;
20044;SDS011;10183;47.808;9.476;2024-01-06T06:46:16;17.30;;;15.73;;
20044;SDS011;10183;47.808;9.476;2024-01-06T06:49:02;18.53;;;16.40;;
20044;SDS011;10183;47.808;9.476;2024-01-06T06:51:48;18.47;;;16.63;;
20044;SDS011;10183;47.808;9.476;2024-01-06T06:54:35;20.40;;;16.30;;
20044;SDS011;10183;47.808;9.476;2024-01-06T06:57:21;17.77;;;16.00;;
20044;SDS011;10183;47.808;9.476;2024-01-06T07:00:07;19.17;;;16.13;;
20044;SDS011;10183;47.808;9.476;2024-01-06T07:02:53;23.30;;;16.90;;
20044;SDS011;10183;47.808;9.476;2024-01-06T07:05:39;18.57;;;16.57;;
20044;SDS011;10183;47.808;9.476;2024-01-06T07:08:25;18.37;;;16.00;;
20044;SDS011;10183;47.808;9.476;2024-01-06T07:11:11;17.57;;;15.40;;
20044;SDS011;10183;47.808;9.476;2024-01-06T07:14:00;16.70;;;15.27;;
20044;SDS011;10183;47.808;9.476;2024-01-06T07:16:46;30.63;;;27.70;;
20044;SDS011;10183;47.808;9.476;2024-01-06T07:19:32;26.97;;;24.40;;
20044;SDS011;10183;47.808;9.476;2024-01-06T07:22:18;22.47;;;20.77;;
20044;SDS011;10183;47.808;9.476;2024-01-06T07:25:04;22.67;;;20.60;;
20044;SDS011;10183;47.808;9.476;2024-01-06T07:27:51;22.93;;;20.73;;
20044;SDS011;10183;47.808;9.476;2024-01-06T07:30:37;23.20;;;21.10;;
20044;SDS011;10183;47.808;9.476;2024-01-06T07:33:23;26.90;;;23.87;;
20044;SDS011;10183;47.808;9.476;2024-01-06T07:36:10;27.83;;;25.00;;
20044;SDS011;10183;47.808;9.476;2024-01-06T07:38:56;26.67;;;24.07;;
20044;SDS011;10183;47.808;9.476;2024-01-06T07:41:42;28.97;;;25.97;;
20044;SDS011;10183;47.808;9.476;2024-01-06T07:44:28;28.50;;;25.60;;
20044;SDS011;10183;47.808;9.476;2024-01-06T07:47:14;27.47;;;24.10;;
20044;SDS011;10183;47.808;9.476;2024-01-06T07:50:00;34.10;;;29.83;;
20044;SDS011;10183;47.808;9.476;2024-01-06T07:52:46;36.33;;;25.20;;
20044;SDS011;10183;47.808;9.476;2024-01-06T07:55:31;28.03;;;24.57;;
20044;SDS011;10183;47.808;9.476;2024-01-06T07:58:17;24.80;;;22.03;;
20044;SDS011;10183;47.808;9.476;2024-01-06T08:01:03;25.97;;;23.00;;
20044;SDS011;10183;47.808;9.476;2024-01-06T08:03:49;23.63;;;21.17;;
20044;SDS011;10183;47.808;9.476;2024-01-06T08:06:35;26.00;;;22.33;;
20044;SDS011;10183;47.808;9.476;2024-01-06T08:09:22;25.00;;;22.37;;
20044;SDS011;10183;47.808;9.476;2024-01-06T08:12:09;23.17;;;20.40;;
20044;SDS011;10183;47.808;9.476;2024-01-06T08:14:55;26.43;;;22.43;;
20044;SDS011;10183;47.808;9.476;2024-01-06T08:17:41;25.43;;;23.13;;
20044;SDS011;10183;47.808;9.476;2024-01-06T08:20:28;25.93;;;23.27;;
20044;SDS011;10183;47.808;9.476;2024-01-06T08:23:14;28.10;;;25.33;;
20044;SDS011;10183;47.808;9.476;2024-01-06T08:26:01;28.33;;;25.40;;
20044;SDS011;10183;47.808;9.476;2024-01-06T08:28:47;27.60;;;24.40;;
20044;SDS011;10183;47.808;9.476;2024-01-06T08:31:33;27.97;;;24.07;;
20044;SDS011;10183;47.808;9.476;2024-01-06T08:34:19;27.90;;;25.27;;
20044;SDS011;10183;47.808;9.476;2024-01-06T08:37:05;29.60;;;26.47;;
20044;SDS011;10183;47.808;9.476;2024-01-06T08:39:51;31.00;;;27.90;;
20044;SDS011;10183;47.808;9.476;2024-01-06T08:42:37;30.20;;;27.10;;
20044;SDS011;10183;47.808;9.476;2024-01-06T08:45:23;29.00;;;26.07;;
20044;SDS011;10183;47.808;9.476;2024-01-06T08:48:09;30.70;;;27.70;;
20044;SDS011;10183;47.808;9.476;2024-01-06T08:50:57;33.43;;;30.10;;
20044;SDS011;10183;47.808;9.476;2024-01-06T08:53:42;34.17;;;30.80;;
20044;SDS011;10183;47.808;9.476;2024-01-06T08:56:29;30.87;;;28.07;;
20044;SDS011;10183;47.808;9.476;2024-01-06T08:59:15;32.97;;;29.60;;
20044;SDS011;10183;47.808;9.476;2024-01-06T09:02:00;32.90;;;29.43;;
20044;SDS011;10183;47.808;9.476;2024-01-06T09:04:46;35.17;;;32.00;;
20044;SDS011;10183;47.808;9.476;2024-01-06T09:07:32;33.47;;;30.10;;
20044;SDS011;10183;47.808;9.476;2024-01-06T09:10:18;36.10;;;32.27;;
20044;SDS011;10183;47.808;9.476;2024-01-06T09:13:04;29.93;;;27.10;;
20044;SDS011;10183;47.808;9.476;2024-01-06T09:15:50;33.37;;;28.00;;
20044;SDS011;10183;47.808;9.476;2024-01-06T09:18:37;30.70;;;27.10;;
20044;SDS011;10183;47.808;9.476;2024-01-06T09:21:23;31.67;;;28.27;;
20044;SDS011;10183;47.808;9.476;2024-01-06T09:24:08;34.87;;;31.17;;
20044;SDS011;10183;47.808;9.476;2024-01-06T09:26:54;33.17;;;29.70;;
20044;SDS011;10183;47.808;9.476;2024-01-06T09:29:40;40.43;;;32.90;;
20044;SDS011;10183;47.808;9.476;2024-01-06T09:32:26;34.73;;;29.83;;
20044;SDS011;10183;47.808;9.476;2024-01-06T09:35:12;32.50;;;29.00;;
20044;SDS011;10183;47.808;9.476;2024-01-06T09:37:59;33.30;;;29.90;;
20044;SDS011;10183;47.808;9.476;2024-01-06T09:40:45;33.17;;;29.57;;
20044;SDS011;10183;47.808;9.476;2024-01-06T09:43:31;33.03;;;29.30;;
20044;SDS011;10183;47.808;9.476;2024-01-06T09:46:23;31.17;;;27.63;;
20044;SDS011;10183;47.808;9.476;2024-01-06T09:49:11;39.00;;;31.77;;
20044;SDS011;10183;47.808;9.476;2024-01-06T09:51:58;35.83;;;32.13;;
20044;SDS011;10183;47.808;9.476;2024-01-06T09:54:46;33.13;;;26.10;;
20044;SDS011;10183;47.808;9.476;2024-01-06T09:57:38;34.30;;;30.90;;
20044;SDS011;10183;47.808;9.476;2024-01-06T10:00:24;38.50;;;34.70;;
20044;SDS011;10183;47.808;9.476;2024-01-06T10:03:10;42.33;;;38.13;;
20044;SDS011;10183;47.808;9.476;2024-01-06T10:05:57;38.40;;;33.33;;
20044;SDS011;10183;47.808;9.476;2024-01-06T10:08:48;37.20;;;33.13;;
20044;SDS011;10183;47.808;9.476;2024-01-06T10:11:35;36.60;;;32.70;;
20044;SDS011;10183;47.808;9.476;2024-01-06T10:14:21;35.97;;;32.07;;
20044;SDS011;10183;47.808;9.476;2024-01-06T10:17:08;37.93;;;33.90;;
20044;SDS011;10183;47.808;9.476;2024-01-06T10:19:54;39.43;;;35.23;;
20044;SDS011;10183;47.808;9.476;2024-01-06T10:22:40;35.43;;;31.90;;
20044;SDS011;10183;47.808;9.476;2024-01-06T10:25:27;35.83;;;31.90;;
20044;SDS011;10183;47.808;9.476;2024-01-06T10:28:13;39.27;;;35.33;;
20044;SDS011;10183;47.808;9.476;2024-01-06T10:30:59;39.20;;;35.33;;
20044;SDS011;10183;47.808;9.476;2024-01-06T10:33:46;38.70;;;34.77;;
20044;SDS011;10183;47.808;9.476;2024-01-06T10:36:33;38.93;;;34.93;;
20044;SDS011;10183;47.808;9.476;2024-01-06T10:39:20;38.37;;;34.37;;
20044;SDS011;10183;47.808;9.476;2024-01-06T10:42:07;36.93;;;33.33;;
20044;SDS011;10183;47.808;9.476;2024-01-06T10:44:53;36.93;;;33.40;;
20044;SDS011;10183;47.808;9.476;2024-01-06T10:47:42;37.60;;;33.90;;
20044;SDS011;10183;47.808;9.476;2024-01-06T10:50:29;33.33;;;30.00;;
20044;SDS011;10183;47.808;9.476;2024-01-06T10:53:15;36.07;;;32.80;;
20044;SDS011;10183;47.808;9.476;2024-01-06T10:56:04;33.20;;;29.97;;
20044;SDS011;10183;47.808;9.476;2024-01-06T10:58:51;30.47;;;27.33;;
20044;SDS011;10183;47.808;9.476;2024-01-06T11:01:39;28.60;;;25.00;;
20044;SDS011;10183;47.808;9.476;2024-01-06T11:04:26;32.47;;;27.57;;
20044;SDS011;10183;47.808;9.476;2024-01-06T11:07:13;34.03;;;30.77;;
20044;SDS011;10183;47.808;9.476;2024-01-06T11:13:09;40.10;;;36.17;;
20044;SDS011;10183;47.808;9.476;2024-01-06T11:16:01;41.63;;;37.73;;
20044;SDS011;10183;47.808;9.476;2024-01-06T11:18:50;40.33;;;35.93;;
20044;SDS011;10183;47.808;9.476;2024-01-06T11:21:36;37.70;;;34.10;;
20044;SDS011;10183;47.808;9.476;2024-01-06T11:24:22;39.67;;;35.83;;
20044;SDS011;10183;47.808;9.476;2024-01-06T11:27:11;41.07;;;36.70;;
20044;SDS011;10183;47.808;9.476;2024-01-06T11:30:03;36.10;;;32.67;;
20044;SDS011;10183;47.808;9.476;2024-01-06T11:32:53;36.53;;;32.47;;
20044;SDS011;10183;47.808;9.476;2024-01-06T11:35:44;36.77;;;33.07;;
20044;SDS011;10183;47.808;9.476;2024-01-06T11:38:37;37.17;;;33.57;;
20044;SDS011;10183;47.808;9.476;2024-01-06T11:44:36;39.67;;;35.60;;
20044;SDS011;10183;47.808;9.476;2024-01-06T11:47:23;39.87;;;35.83;;
20044;SDS011;10183;47.808;9.476;2024-01-06T11:50:10;41.63;;;37.77;;
20044;SDS011;10183;47.808;9.476;2024-01-06T11:52:55;41.73;;;37.63;;
20044;SDS011;10183;47.808;9.476;2024-01-06T11:55:42;38.20;;;34.53;;
20044;SDS011;10183;47.808;9.476;2024-01-06T11:58:28;40.30;;;36.53;;
20044;SDS011;10183;47.808;9.476;2024-01-06T12:01:14;38.57;;;34.40;;
20044;SDS011;10183;47.808;9.476;2024-01-06T12:04:00;38.87;;;34.67;;
20044;SDS011;10183;47.808;9.476;2024-01-06T12:06:47;37.87;;;33.80;;
20044;SDS011;10183;47.808;9.476;2024-01-06T12:09:34;35.70;;;32.10;;
20044;SDS011;10183;47.808;9.476;2024-01-06T12:12:21;37.17;;;33.67;;
20044;SDS011;10183;47.808;9.476;2024-01-06T12:15:07;29.47;;;26.63;;
20044;SDS011;10183;47.808;9.476;2024-01-06T12:17:55;33.13;;;29.87;;
20044;SDS011;10183;47.808;9.476;2024-01-06T12:20:41;28.97;;;26.17;;
20044;SDS011;10183;47.808;9.476;2024-01-06T12:23:28;31.67;;;28.47;;
20044;SDS011;10183;47.808;9.476;2024-01-06T12:26:14;29.13;;;26.53;;
20044;SDS011;10183;47.808;9.476;2024-01-06T12:29:03;29.17;;;24.47;;
20044;SDS011;10183;47.808;9.476;2024-01-06T12:31:50;27.80;;;25.13;;
20044;SDS011;10183;47.808;9.476;2024-01-06T12:34:36;24.60;;;21.37;;
20044;SDS011;10183;47.808;9.476;2024-01-06T12:37:24;24.07;;;19.97;;
20044;SDS011;10183;47.808;9.476;2024-01-06T12:40:11;26.00;;;22.83;;
20044;SDS011;10183;47.808;9.476;2024-01-06T12:42:58;26.03;;;23.53;;
20044;SDS011;10183;47.808;9.476;2024-01-06T12:45:44;28.13;;;25.43;;
20044;SDS011;10183;47.808;9.476;2024-01-06T12:48:30;25.53;;;23.17;;
20044;SDS011;10183;47.808;9.476;2024-01-06T12:51:16;31.67;;;28.57;;
20044;SDS011;10183;47.808;9.476;2024-01-06T12:54:02;34.80;;;31.60;;
20044;SDS011;10183;47.808;9.476;2024-01-06T12:56:49;36.77;;;33.37;;
20044;SDS011;10183;47.808;9.476;2024-01-06T12:59:35;36.50;;;33.13;;
20044;SDS011;10183;47.808;9.476;2024-01-06T13:02:21;35.97;;;32.70;;
20044;SDS011;10183;47.808;9.476;2024-01-06T13:05:07;31.40;;;28.47;;
20044;SDS011;10183;47.808;9.476;2024-01-06T13:07:54;33.83;;;30.73;;
20044;SDS011;10183;47.808;9.476;2024-01-06T13:10:40;37.17;;;33.57;;
20044;SDS011;10183;47.808;9.476;2024-01-06T13:13:26;31.80;;;28.70;;
20044;SDS011;10183;47.808;9.476;2024-01-06T13:16:12;31.00;;;27.83;;
20044;SDS011;10183;47.808;9.476;2024-01-06T13:18:58;33.50;;;30.23;;
20044;SDS011;10183;47.808;9.476;2024-01-06T13:21:44;30.13;;;27.33;;
20044;SDS011;10183;47.808;9.476;2024-01-06T13:24:30;32.13;;;28.10;;
20044;SDS011;10183;47.808;9.476;2024-01-06T13:27:16;30.80;;;27.60;;
20044;SDS011;10183;47.808;9.476;2024-01-06T13:30:03;29.43;;;26.43;;
20044;SDS011;10183;47.808;9.476;2024-01-06T13:32:50;29.53;;;26.40;;
20044;SDS011;10183;47.808;9.476;2024-01-06T13:35:37;30.50;;;26.87;;
20044;SDS011;10183;47.808;9.476;2024-01-06T13:38:24;27.13;;;24.33;;
20044;SDS011;10183;47.808;9.476;2024-01-06T13:41:11;28.60;;;25.70;;
20044;SDS011;10183;47.808;9.476;2024-01-06T13:43:57;31.73;;;26.47;;
20044;SDS011;10183;47.808;9.476;2024-01-06T13:46:43;41.40;;;32.93;;
20044;SDS011;10183;47.808;9.476;2024-01-06T13:49:30;32.60;;;29.30;;
20044;SDS011;10183;47.808;9.476;2024-01-06T13:52:16;42.83;;;32.23;;
20044;SDS011;10183;47.808;9.476;2024-01-06T13:55:02;32.70;;;29.40;;
20044;SDS011;10183;47.808;9.476;2024-01-06T13:57:48;33.90;;;29.20;;
20044;SDS011;10183;47.808;9.476;2024-01-06T14:00:34;30.37;;;26.33;;
20044;SDS011;10183;47.808;9.476;2024-01-06T14:03:21;32.17;;;26.27;;
20044;SDS011;10183;47.808;9.476;2024-01-06T14:06:08;28.27;;;24.07;;
20044;SDS011;10183;47.808;9.476;2024-01-06T14:08:54;29.10;;;23.70;;
20044;SDS011;10183;47.808;9.476;2024-01-06T14:11:43;31.47;;;27.30;;
20044;SDS011;10183;47.808;9.476;2024-01-06T14:14:31;29.73;;;23.90;;
20044;SDS011;10183;47.808;9.476;2024-01-06T14:17:17;34.30;;;26.50;;
20044;SDS011;10183;47.808;9.476;2024-01-06T14:20:03;29.40;;;25.27;;
20044;SDS011;10183;47.808;9.476;2024-01-06T14:22:50;32.60;;;25.43;;
20044;SDS011;10183;47.808;9.476;2024-01-06T14:25:36;32.83;;;25.30;;
20044;SDS011;10183;47.808;9.476;2024-01-06T14:28:22;31.60;;;25.90;;
20044;SDS011;10183;47.808;9.476;2024-01-06T14:31:07;35.23;;;25.77;;
20044;SDS011;10183;47.808;9.476;2024-01-06T14:33:55;35.33;;;30.03;;
20044;SDS011;10183;47.808;9.476;2024-01-06T14:36:41;31.63;;;26.43;;
20044;SDS011;10183;47.808;9.476;2024-01-06T14:39:33;36.47;;;31.13;;
20044;SDS011;10183;47.808;9.476;2024-01-06T14:42:18;35.77;;;30.37;;
20044;SDS011;10183;47.808;9.476;2024-01-06T14:45:05;39.27;;;30.23;;
20044;SDS011;10183;47.808;9.476;2024-01-06T14:47:53;37.43;;;31.37;;
20044;SDS011;10183;47.808;9.476;2024-01-06T14:50:39;32.60;;;27.50;;
20044;SDS011;10183;47.808;9.476;2024-01-06T14:53:25;29.50;;;26.30;;
20044;SDS011;10183;47.808;9.476;2024-01-06T14:56:11;26.67;;;22.97;;
20044;SDS011;10183;47.808;9.476;2024-01-06T14:58:57;31.27;;;21.53;;
20044;SDS011;10183;47.808;9.476;2024-01-06T15:01:43;42.07;;;37.80;;
20044;SDS011;10183;47.808;9.476;2024-01-06T15:04:29;38.67;;;33.33;;
20044;SDS011;10183;47.808;9.476;2024-01-06T15:07:15;43.90;;;39.27;;
20044;SDS011;10183;47.808;9.476;2024-01-06T15:10:01;43.17;;;35.47;;
20044;SDS011;10183;47.808;9.476;2024-01-06T15:12:48;37.63;;;32.93;;
20044;SDS011;10183;47.808;9.476;2024-01-06T15:15:34;38.60;;;34.63;;
20044;SDS011;10183;47.808;9.476;2024-01-06T15:18:21;34.13;;;30.30;;
20044;SDS011;10183;47.808;9.476;2024-01-06T15:21:06;39.17;;;32.20;;
20044;SDS011;10183;47.808;9.476;2024-01-06T15:23:52;29.77;;;26.63;;
20044;SDS011;10183;47.808;9.476;2024-01-06T15:26:41;28.77;;;25.03;;
20044;SDS011;10183;47.808;9.476;2024-01-06T15:29:27;30.87;;;23.60;;
20044;SDS011;10183;47.808;9.476;2024-01-06T15:32:13;31.93;;;24.70;;
20044;SDS011;10183;47.808;9.476;2024-01-06T15:34:59;28.47;;;23.67;;
20044;SDS011;10183;47.808;9.476;2024-01-06T15:37:45;30.23;;;24.40;;
20044;SDS011;10183;47.808;9.476;2024-01-06T15:40:32;27.70;;;23.83;;
20044;SDS011;10183;47.808;9.476;2024-01-06T15:43:18;28.17;;;23.90;;
20044;SDS011;10183;47.808;9.476;2024-01-06T15:46:04;23.77;;;21.17;;
20044;SDS011;10183;47.808;9.476;2024-01-06T15:48:50;26.33;;;22.10;;
20044;SDS011;10183;47.808;9.476;2024-01-06T15:51:36;23.47;;;20.93;;
20044;SDS011;10183;47.808;9.476;2024-01-06T15:54:22;22.07;;;20.07;;
20044;SDS011;10183;47.808;9.476;2024-01-06T15:57:08;21.70;;;19.63;;
20044;SDS011;10183;47.808;9.476;2024-01-06T15:59:55;21.07;;;18.97;;
20044;SDS011;10183;47.808;9.476;2024-01-06T16:02:41;20.73;;;18.97;;
20044;SDS011;10183;47.808;9.476;2024-01-06T16:05:27;22.70;;;20.20;;
20044;SDS011;10183;47.808;9.476;2024-01-06T16:08:13;23.17;;;20.87;;
20044;SDS011;10183;47.808;9.476;2024-01-06T16:11:00;22.10;;;19.97;;
20044;SDS011;10183;47.808;9.476;2024-01-06T16:13:46;21.67;;;19.37;;
20044;SDS011;10183;47.808;9.476;2024-01-06T16:16:32;22.43;;;20.40;;
20044;SDS011;10183;47.808;9.476;2024-01-06T16:19:18;23.90;;;21.70;;